Wind From: 13-12-2017 10:08 Until: 14-12-2017 06:00 warning for: Wind Level: Yellow info button

Although rather usual in this region, locally or potentially dangerous phenomena are expected. (such as local winds, summer thunderstorms, rising streams or high waves) Be aware and pay attention to the latest weather updates, especially if you carry out activities exposed to weather or close to a stream or shoreline. 


Meteo18 Weather Cam more information Meteo18 Weather Cam


Thunder radar more information blitzortung!


Rain radar more information rain snow radar


Visit our other weather sites:

Template documentation
and downloads

And another site



Weather Underground History page Text

Daily Summary for September 1, 2017 Units:  Metric    English   Both
« Previous Day
Next Day »
Daily Weekly Monthly Yearly Custom
  High: Low: Average:
Temperature: 20.7 °C 8.8 °C 13.6 °C
Dew Point: 11.9 °C 8.0 °C 10.2 °C
Humidity: 95 % 47 % 81 %
Wind Speed: 14.5 km/h 0.0 km/h 2.1 km/h
Wind Gust: 27.4 km/h - -
Wind:- - SSW
Pressure: 1022.6 hPa 1020.2 hPa -
Precipitation: 1.5 mm    
Historical Graphs
 
 
Tabular Data for September 1, 2017
Time Temperature Dew Point Pressure Wind Wind Speed Wind Gust Humidity Rainfall Rate (Hourly)
00:02 13.3 °C 10.5 °C 1022.6 hPa Calm     83 % 0.0 mm
00:07 13.3 °C 10.5 °C 1022.6 hPa Calm     83 % 0.0 mm
00:12 13.4 °C 10.6 °C 1022.6 hPa Calm     83 % 0.0 mm
00:17 13.4 °C 10.8 °C 1022.6 hPa Calm     84 % 0.0 mm
00:22 13.4 °C 10.8 °C 1022.2 hPa Calm     84 % 0.0 mm
00:32 13.2 °C 10.7 °C 1022.2 hPa Calm     85 % 0.0 mm
00:42 13.0 °C 10.5 °C 1022.6 hPa Calm     85 % 0.0 mm
00:47 12.9 °C 10.4 °C 1022.2 hPa Calm     85 % 0.0 mm
00:52 12.9 °C 10.4 °C 1022.2 hPa Calm     85 % 0.0 mm
01:02 12.4 °C 9.9 °C 1022.2 hPa Calm     85 % 0.0 mm
01:12 12.4 °C 9.8 °C 1022.2 hPa Calm     84 % 0.0 mm
01:17 12.6 °C 10.0 °C 1022.2 hPa Calm     84 % 0.0 mm
01:22 12.7 °C 10.4 °C 1022.2 hPa Calm     86 % 0.0 mm
01:27 12.7 °C 10.4 °C 1022.2 hPa Calm     86 % 0.0 mm
01:32 12.5 °C 10.0 °C 1022.2 hPa Calm     85 % 0.0 mm
01:42 12.1 °C 10.0 °C 1022.2 hPa Calm     87 % 0.0 mm
01:47 12.0 °C 9.7 °C 1022.2 hPa Calm     86 % 0.0 mm
01:52 11.8 °C 9.7 °C 1022.2 hPa Calm     87 % 0.0 mm
02:02 11.7 °C 9.6 °C 1022.2 hPa Calm     87 % 0.0 mm
02:07 11.7 °C 9.8 °C 1022.2 hPa Calm     88 % 0.0 mm
02:12 11.6 °C 9.7 °C 1021.9 hPa Calm     88 % 0.0 mm
02:22 11.5 °C 9.6 °C 1021.9 hPa Calm     88 % 0.0 mm
02:32 11.5 °C 9.7 °C 1021.9 hPa Calm     89 % 0.0 mm
02:42 11.4 °C 9.3 °C 1021.9 hPa Calm     87 % 0.0 mm
02:47 11.5 °C 9.4 °C 1021.9 hPa Calm     87 % 0.0 mm
02:52 11.4 °C 9.3 °C 1021.9 hPa Calm     87 % 0.0 mm
03:02 11.2 °C 9.1 °C 1021.9 hPa Calm     87 % 0.0 mm
03:07 11.1 °C 9.2 °C 1021.9 hPa Calm     88 % 0.0 mm
03:12 11.1 °C 9.2 °C 1021.9 hPa Calm     88 % 0.0 mm
03:17 10.9 °C 9.0 °C 1021.9 hPa Calm     88 % 0.0 mm
03:22 10.8 °C 8.9 °C 1021.9 hPa Calm     88 % 0.0 mm
03:27 10.7 °C 9.0 °C 1021.6 hPa Calm     89 % 0.0 mm
03:32 10.6 °C 8.9 °C 1021.6 hPa Calm     89 % 0.0 mm
03:37 10.5 °C 8.8 °C 1021.6 hPa Calm     89 % 0.0 mm
03:42 10.4 °C 8.8 °C 1021.6 hPa Calm     90 % 0.0 mm
03:47 10.4 °C 8.8 °C 1021.6 hPa Calm     90 % 0.0 mm
03:52 10.4 °C 8.8 °C 1021.6 hPa Calm     90 % 0.0 mm
03:57 10.3 °C 8.9 °C 1021.6 hPa Calm     91 % 0.0 mm
04:02 10.3 °C 8.9 °C 1021.9 hPa Calm     91 % 0.0 mm
04:12 10.2 °C 8.8 °C 1021.6 hPa Calm     91 % 0.0 mm
04:17 10.2 °C 8.8 °C 1021.6 hPa Calm     91 % 0.0 mm
04:22 10.2 °C 8.8 °C 1021.6 hPa Calm     91 % 0.0 mm
04:27 10.2 °C 8.8 °C 1021.6 hPa Calm     91 % 0.0 mm
04:32 10.2 °C 9.0 °C 1021.6 hPa Calm     92 % 0.0 mm
04:42 10.1 °C 8.7 °C 1021.6 hPa NE 4.8 km/h 6.4 km/h 91 % 0.0 mm
04:47 10.0 °C 8.8 °C 1021.6 hPa Calm   6.4 km/h 92 % 0.0 mm
04:52 10.1 °C 9.0 °C 1021.6 hPa NNE 1.6 km/h 6.4 km/h 93 % 0.0 mm
04:57 10.1 °C 8.9 °C 1021.6 hPa NNE 1.6 km/h 4.8 km/h 92 % 0.0 mm
05:02 10.1 °C 8.9 °C 1021.6 hPa Calm   4.8 km/h 92 % 0.0 mm
05:07 10.2 °C 9.1 °C 1021.6 hPa Calm   3.2 km/h 93 % 0.0 mm
05:12 10.2 °C 9.1 °C 1021.6 hPa ENE 3.2 km/h 3.2 km/h 93 % 0.0 mm
05:22 10.1 °C 8.9 °C 1021.6 hPa Calm   6.4 km/h 92 % 0.0 mm
05:27 10.0 °C 8.8 °C 1021.6 hPa Calm   4.8 km/h 92 % 0.0 mm
05:32 9.8 °C 8.6 °C 1021.6 hPa Calm   4.8 km/h 92 % 0.0 mm
05:37 9.7 °C 8.5 °C 1021.6 hPa Calm     92 % 0.0 mm
05:42 9.6 °C 8.4 °C 1021.6 hPa Calm     92 % 0.0 mm
05:47 9.6 °C 8.5 °C 1021.6 hPa Calm   1.6 km/h 93 % 0.0 mm
05:52 9.6 °C 8.5 °C 1021.6 hPa NW 1.6 km/h 1.6 km/h 93 % 0.0 mm
05:57 9.6 °C 8.5 °C 1021.6 hPa Calm   3.2 km/h 93 % 0.0 mm
06:02 9.6 °C 8.5 °C 1021.6 hPa Calm   3.2 km/h 93 % 0.0 mm
06:12 9.3 °C 8.1 °C 1021.6 hPa WNW 3.2 km/h 3.2 km/h 92 % 0.0 mm
06:17 9.1 °C 8.0 °C 1021.6 hPa Calm   1.6 km/h 93 % 0.0 mm
06:22 9.2 °C 8.3 °C 1021.6 hPa Calm   3.2 km/h 94 % 0.0 mm
06:27 9.2 °C 8.3 °C 1021.6 hPa WNW 1.6 km/h 3.2 km/h 94 % 0.0 mm
06:32 9.0 °C 8.1 °C 1021.6 hPa Calm   3.2 km/h 94 % 0.0 mm
06:37 9.0 °C 8.1 °C 1021.6 hPa Calm   3.2 km/h 94 % 0.0 mm
06:42 8.9 °C 8.0 °C 1021.6 hPa WNW 3.2 km/h 3.2 km/h 94 % 0.0 mm
06:47 8.9 °C 8.0 °C 1021.6 hPa Calm   3.2 km/h 94 % 0.0 mm
06:52 8.9 °C 8.0 °C 1021.6 hPa Calm   3.2 km/h 94 % 0.0 mm
06:57 8.9 °C 8.1 °C 1021.6 hPa West 1.6 km/h 3.2 km/h 95 % 0.0 mm
07:02 9.1 °C 8.3 °C 1021.6 hPa Calm   3.2 km/h 95 % 0.0 mm
07:07 9.1 °C 8.3 °C 1021.6 hPa Calm   1.6 km/h 95 % 0.0 mm
07:12 9.1 °C 8.3 °C 1021.6 hPa Calm   1.6 km/h 95 % 0.0 mm
07:17 8.9 °C 8.0 °C 1021.6 hPa West 1.6 km/h 3.2 km/h 94 % 0.0 mm
07:22 8.8 °C 8.0 °C 1021.6 hPa West 1.6 km/h 3.2 km/h 95 % 0.0 mm
07:27 8.9 °C 8.1 °C 1021.6 hPa Calm   3.2 km/h 95 % 0.0 mm
07:32 9.1 °C 8.3 °C 1021.6 hPa Calm   3.2 km/h 95 % 0.0 mm
07:37 9.1 °C 8.3 °C 1021.6 hPa Calm   3.2 km/h 95 % 0.0 mm
07:42 9.1 °C 8.3 °C 1021.6 hPa Calm   3.2 km/h 95 % 0.0 mm
07:47 9.2 °C 8.4 °C 1021.6 hPa Calm     95 % 0.0 mm
07:52 9.2 °C 8.3 °C 1021.6 hPa Calm     94 % 0.0 mm
07:57 9.2 °C 8.4 °C 1021.6 hPa Calm   1.6 km/h 95 % 0.0 mm
08:02 9.2 °C 8.4 °C 1021.6 hPa Calm   1.6 km/h 95 % 0.0 mm
08:07 9.3 °C 8.5 °C 1021.6 hPa Calm     95 % 0.0 mm
08:12 9.3 °C 8.5 °C 1021.6 hPa Calm     95 % 0.0 mm
08:17 9.6 °C 8.8 °C 1021.6 hPa Calm   3.2 km/h 95 % 0.0 mm
08:22 9.8 °C 9.0 °C 1021.6 hPa Calm   3.2 km/h 95 % 0.0 mm
08:32 9.7 °C 8.8 °C 1021.6 hPa Calm   1.6 km/h 94 % 0.0 mm
08:37 9.8 °C 8.9 °C 1021.6 hPa Calm   1.6 km/h 94 % 0.0 mm
08:42 9.9 °C 9.0 °C 1021.6 hPa Calm   1.6 km/h 94 % 0.0 mm
08:47 10.1 °C 9.2 °C 1021.9 hPa Calm     94 % 0.0 mm
08:57 10.5 °C 9.7 °C 1021.6 hPa Calm     95 % 0.0 mm
09:02 10.9 °C 10.1 °C 1021.6 hPa Calm     95 % 0.0 mm
09:07 11.2 °C 10.3 °C 1021.6 hPa Calm   1.6 km/h 94 % 0.0 mm
09:12 11.7 °C 10.8 °C 1021.6 hPa Calm   1.6 km/h 94 % 0.0 mm
09:22 12.3 °C 10.9 °C 1021.6 hPa Calm   1.6 km/h 91 % 0.0 mm
09:27 12.6 °C 10.8 °C 1021.6 hPa Calm   1.6 km/h 89 % 0.0 mm
09:32 13.1 °C 11.5 °C 1021.6 hPa Calm   1.6 km/h 90 % 0.0 mm
09:37 13.8 °C 11.5 °C 1021.6 hPa Calm     86 % 0.0 mm
09:42 14.1 °C 11.4 °C 1021.6 hPa Calm     84 % 0.0 mm
09:47 14.8 °C 11.8 °C 1021.6 hPa Calm     82 % 0.0 mm
09:52 14.6 °C 11.2 °C 1021.6 hPa Calm     80 % 0.0 mm
09:57 14.7 °C 11.5 °C 1021.6 hPa Calm     81 % 0.0 mm
10:02 14.9 °C 11.3 °C 1021.6 hPa Calm     79 % 0.0 mm
10:07 15.2 °C 11.4 °C 1021.6 hPa Calm     78 % 0.0 mm
10:12 15.3 °C 11.3 °C 1021.6 hPa Calm     77 % 0.0 mm
10:17 15.4 °C 11.4 °C 1021.6 hPa Calm     77 % 0.0 mm
10:27 15.7 °C 11.1 °C 1021.9 hPa Calm   1.6 km/h 74 % 0.0 mm
10:32 16.1 °C 11.3 °C 1021.9 hPa Calm   1.6 km/h 73 % 0.0 mm
10:37 16.6 °C 11.5 °C 1021.9 hPa Calm   3.2 km/h 72 % 0.0 mm
10:42 16.6 °C 11.1 °C 1021.9 hPa ESE 4.8 km/h 4.8 km/h 70 % 0.0 mm
10:47 16.4 °C 11.3 °C 1021.9 hPa SE 4.8 km/h 8.0 km/h 72 % 0.0 mm
10:52 16.6 °C 11.7 °C 1021.9 hPa Calm   8.0 km/h 73 % 0.0 mm
10:57 16.7 °C 11.4 °C 1021.9 hPa SSE 3.2 km/h 9.7 km/h 71 % 0.0 mm
11:02 16.7 °C 11.6 °C 1021.9 hPa Calm   9.7 km/h 72 % 0.0 mm
11:07 16.8 °C 11.3 °C 1021.9 hPa SW 4.8 km/h 9.7 km/h 70 % 0.0 mm
11:12 16.9 °C 11.2 °C 1021.9 hPa SE 1.6 km/h 9.7 km/h 69 % 0.0 mm
11:22 17.8 °C 11.4 °C 1021.9 hPa SSE 1.6 km/h 6.4 km/h 66 % 0.0 mm
11:27 18.1 °C 11.9 °C 1021.6 hPa South 3.2 km/h 6.4 km/h 67 % 0.0 mm
11:32 18.4 °C 11.7 °C 1021.9 hPa SW 4.8 km/h 6.4 km/h 65 % 0.0 mm
11:37 18.1 °C 11.2 °C 1021.6 hPa SSW 1.6 km/h 6.4 km/h 64 % 0.0 mm
11:42 18.2 °C 11.3 °C 1021.6 hPa SW 1.6 km/h 6.4 km/h 64 % 0.0 mm
11:47 18.0 °C 11.1 °C 1021.6 hPa Calm   8.0 km/h 64 % 0.0 mm
11:57 18.6 °C 11.2 °C 1021.6 hPa South 1.6 km/h 8.0 km/h 62 % 0.0 mm
12:02 18.9 °C 11.5 °C 1021.6 hPa SSW 6.4 km/h 8.0 km/h 62 % 0.0 mm
12:12 19.9 °C 11.9 °C 1021.6 hPa Calm   9.7 km/h 60 % 0.0 mm
12:17 20.0 °C 10.4 °C 1021.6 hPa WSW 4.8 km/h 11.3 km/h 54 % 0.0 mm
12:22 20.2 °C 10.6 °C 1021.2 hPa SE 1.6 km/h 11.3 km/h 54 % 0.0 mm
12:32 20.7 °C 9.3 °C 1021.2 hPa SSW 3.2 km/h 11.3 km/h 48 % 0.0 mm
12:37 20.3 °C 8.6 °C 1021.2 hPa West 3.2 km/h 9.7 km/h 47 % 0.0 mm
12:42 20.1 °C 9.4 °C 1021.2 hPa WNW 1.6 km/h 9.7 km/h 50 % 0.0 mm
12:47 19.7 °C 9.3 °C 1021.2 hPa WNW 9.7 km/h 9.7 km/h 51 % 0.0 mm
12:52 18.6 °C 8.0 °C 1021.2 hPa WNW 14.5 km/h 20.9 km/h 50 % 0.0 mm
12:57 17.2 °C 8.9 °C 1021.2 hPa North 8.0 km/h 27.4 km/h 58 % 0.0 mm
13:02 16.2 °C 8.9 °C 1021.2 hPa NW 8.0 km/h 27.4 km/h 62 % 0.3 mm
13:12 15.4 °C 9.1 °C 1021.2 hPa NW 6.4 km/h 14.5 km/h 66 % 0.5 mm
13:17 14.9 °C 9.5 °C 1021.2 hPa NNW 8.0 km/h 14.5 km/h 70 % 0.5 mm
13:22 15.0 °C 9.1 °C 1021.2 hPa NNW 8.0 km/h 17.7 km/h 68 % 0.8 mm
13:27 15.2 °C 8.9 °C 1021.2 hPa North 6.4 km/h 17.7 km/h 66 % 0.8 mm
13:32 15.4 °C 10.2 °C 1021.2 hPa NNW 3.2 km/h 14.5 km/h 71 % 0.8 mm
13:37 14.8 °C 10.4 °C 1020.9 hPa NNW 6.4 km/h 14.5 km/h 75 % 0.8 mm
13:42 15.0 °C 10.8 °C 1021.2 hPa NNE 8.0 km/h 12.9 km/h 76 % 1.0 mm
13:47 15.1 °C 10.7 °C 1021.2 hPa NNW 9.7 km/h 14.5 km/h 75 % 1.0 mm
13:52 15.3 °C 10.9 °C 1021.6 hPa NNW 8.0 km/h 19.3 km/h 75 % 1.0 mm
13:57 15.5 °C 11.5 °C 1021.6 hPa NNE 6.4 km/h 19.3 km/h 77 % 1.0 mm
14:02 15.7 °C 11.3 °C 1021.6 hPa NNE 9.7 km/h 19.3 km/h 75 % 0.8 mm
14:07 15.8 °C 11.0 °C 1021.6 hPa ENE 9.7 km/h 14.5 km/h 73 % 0.8 mm
14:12 15.8 °C 10.8 °C 1021.6 hPa ENE 3.2 km/h 14.5 km/h 72 % 0.5 mm
14:17 15.8 °C 10.8 °C 1021.6 hPa Calm   14.5 km/h 72 % 0.5 mm
14:22 15.9 °C 11.1 °C 1021.6 hPa ESE 1.6 km/h 11.3 km/h 73 % 0.3 mm
14:32 15.9 °C 10.6 °C 1021.6 hPa Calm   6.4 km/h 71 % 0.3 mm
14:37 15.8 °C 10.6 °C 1021.6 hPa East 6.4 km/h 9.7 km/h 71 % 0.3 mm
14:42 15.6 °C 10.1 °C 1021.6 hPa ENE 6.4 km/h 9.7 km/h 70 % 0.0 mm
14:47 15.6 °C 9.7 °C 1021.2 hPa NNE 6.4 km/h 9.7 km/h 68 % 0.0 mm
14:57 15.7 °C 9.8 °C 1020.9 hPa NNE 8.0 km/h 9.7 km/h 68 % 0.0 mm
15:02 15.8 °C 10.1 °C 1020.9 hPa NE 1.6 km/h 12.9 km/h 69 % 0.0 mm
15:12 16.2 °C 10.3 °C 1020.9 hPa Calm   11.3 km/h 68 % 0.0 mm
15:17 16.3 °C 9.9 °C 1020.9 hPa NNW 1.6 km/h 6.4 km/h 66 % 0.0 mm
15:22 16.2 °C 11.1 °C 1020.9 hPa WNW 1.6 km/h 3.2 km/h 72 % 0.0 mm
15:32 16.0 °C 11.2 °C 1020.5 hPa Calm   3.2 km/h 73 % 0.0 mm
15:42 15.9 °C 11.9 °C 1020.5 hPa Calm   3.2 km/h 77 % 0.0 mm
15:47 15.7 °C 11.7 °C 1020.5 hPa Calm   3.2 km/h 77 % 0.0 mm
15:52 15.7 °C 11.9 °C 1020.5 hPa Calm   4.8 km/h 78 % 0.0 mm
15:57 15.7 °C 11.9 °C 1020.5 hPa Calm   4.8 km/h 78 % 0.0 mm
16:02 15.7 °C 11.9 °C 1020.5 hPa NE 1.6 km/h 4.8 km/h 78 % 0.0 mm
16:12 15.6 °C 11.0 °C 1020.5 hPa NE 9.7 km/h 9.7 km/h 74 % 0.0 mm
16:17 15.7 °C 10.7 °C 1020.5 hPa NE 6.4 km/h 12.9 km/h 72 % 0.0 mm
16:22 15.7 °C 10.9 °C 1020.5 hPa NNE 9.7 km/h 12.9 km/h 73 % 0.0 mm
16:32 15.8 °C 10.8 °C 1020.5 hPa North 1.6 km/h 12.9 km/h 72 % 0.0 mm
16:42 15.9 °C 11.1 °C 1020.5 hPa NNE 4.8 km/h 6.4 km/h 73 % 0.0 mm
16:47 16.1 °C 11.1 °C 1020.5 hPa NNW 3.2 km/h 8.0 km/h 72 % 0.0 mm
16:52 16.2 °C 10.9 °C 1020.5 hPa NE 8.0 km/h 9.7 km/h 71 % 0.0 mm
16:57 16.2 °C 10.7 °C 1020.5 hPa NE 6.4 km/h 12.9 km/h 70 % 0.0 mm
17:02 16.2 °C 10.7 °C 1020.5 hPa NNE 4.8 km/h 12.9 km/h 70 % 0.0 mm
17:12 16.3 °C 10.6 °C 1020.2 hPa NE 11.3 km/h 17.7 km/h 69 % 0.0 mm
17:17 16.4 °C 10.9 °C 1020.2 hPa NNE 1.6 km/h 17.7 km/h 70 % 0.0 mm
17:22 16.4 °C 10.9 °C 1020.2 hPa NNE 3.2 km/h 14.5 km/h 70 % 0.0 mm
17:32 16.4 °C 11.1 °C 1020.2 hPa ENE 1.6 km/h 12.9 km/h 71 % 0.0 mm
17:37 16.4 °C 10.9 °C 1020.2 hPa NNW 6.4 km/h 12.9 km/h 70 % 0.0 mm
17:42 16.4 °C 11.3 °C 1020.2 hPa NW 3.2 km/h 14.5 km/h 72 % 0.0 mm
17:47 16.5 °C 11.4 °C 1020.2 hPa NE 4.8 km/h 14.5 km/h 72 % 0.0 mm
17:52 16.6 °C 11.1 °C 1020.2 hPa NE 6.4 km/h 14.5 km/h 70 % 0.0 mm
17:57 16.7 °C 11.2 °C 1020.2 hPa NNE 1.6 km/h 8.0 km/h 70 % 0.0 mm
18:02 16.8 °C 10.6 °C 1020.2 hPa NNE 6.4 km/h 8.0 km/h 67 % 0.0 mm
18:12 16.9 °C 10.7 °C 1020.2 hPa NNE 6.4 km/h 9.7 km/h 67 % 0.0 mm
18:17 16.9 °C 10.7 °C 1020.2 hPa NNE 1.6 km/h 9.7 km/h 67 % 0.0 mm
18:22 16.9 °C 10.7 °C 1020.2 hPa NE 4.8 km/h 9.7 km/h 67 % 0.0 mm
18:32 16.8 °C 10.4 °C 1020.2 hPa NE 1.6 km/h 12.9 km/h 66 % 0.0 mm
18:37 16.7 °C 10.8 °C 1020.2 hPa Calm   8.0 km/h 68 % 0.0 mm
18:42 16.6 °C 10.9 °C 1020.2 hPa Calm   4.8 km/h 69 % 0.0 mm
18:47 16.6 °C 10.7 °C 1020.5 hPa Calm   4.8 km/h 68 % 0.0 mm
18:57 16.4 °C 10.7 °C 1020.5 hPa Calm   1.6 km/h 69 % 0.0 mm
19:02 16.3 °C 11.0 °C 1020.5 hPa Calm   1.6 km/h 71 % 0.0 mm
19:12 16.2 °C 10.9 °C 1020.9 hPa West 1.6 km/h 1.6 km/h 71 % 0.0 mm
19:17 15.9 °C 11.1 °C 1020.9 hPa West 9.7 km/h 9.7 km/h 73 % 0.0 mm
19:22 15.9 °C 10.6 °C 1021.2 hPa West 11.3 km/h 12.9 km/h 71 % 0.0 mm
19:27 15.8 °C 11.4 °C 1021.6 hPa West 14.5 km/h 14.5 km/h 75 % 0.0 mm
19:32 15.6 °C 11.6 °C 1021.6 hPa West 6.4 km/h 24.1 km/h 77 % 0.0 mm
19:42 15.3 °C 11.5 °C 1021.6 hPa WNW 8.0 km/h 16.1 km/h 78 % 0.0 mm
19:47 15.2 °C 11.4 °C 1021.6 hPa West 8.0 km/h 14.5 km/h 78 % 0.0 mm
19:52 15.2 °C 11.6 °C 1021.2 hPa West 3.2 km/h 14.5 km/h 79 % 0.0 mm
19:57 15.1 °C 11.5 °C 1021.6 hPa West 8.0 km/h 12.9 km/h 79 % 0.0 mm
20:02 15.0 °C 11.8 °C 1021.6 hPa NW 1.6 km/h 12.9 km/h 81 % 0.3 mm
20:12 14.7 °C 11.5 °C 1021.6 hPa West 3.2 km/h 11.3 km/h 81 % 0.3 mm
20:17 14.6 °C 11.6 °C 1021.6 hPa West 6.4 km/h 11.3 km/h 82 % 0.5 mm
20:22 14.6 °C 11.6 °C 1021.6 hPa West 1.6 km/h 11.3 km/h 82 % 0.5 mm
20:27 14.5 °C 11.6 °C 1021.6 hPa Calm   11.3 km/h 83 % 0.5 mm
20:32 14.4 °C 11.5 °C 1021.6 hPa WNW 3.2 km/h 9.7 km/h 83 % 0.5 mm
20:42 14.3 °C 11.8 °C 1021.6 hPa WNW 1.6 km/h 6.4 km/h 85 % 0.5 mm
20:52 14.2 °C 11.7 °C 1021.6 hPa WNW 1.6 km/h 6.4 km/h 85 % 0.5 mm
20:57 14.1 °C 11.6 °C 1021.6 hPa NW 3.2 km/h 6.4 km/h 85 % 0.5 mm
21:02 14.0 °C 11.7 °C 1021.6 hPa WNW 3.2 km/h 6.4 km/h 86 % 0.3 mm
21:12 13.9 °C 11.6 °C 1021.9 hPa WNW 6.4 km/h 6.4 km/h 86 % 0.0 mm
21:17 13.9 °C 11.6 °C 1021.9 hPa West 1.6 km/h 6.4 km/h 86 % 0.0 mm
21:22 13.9 °C 11.6 °C 1021.9 hPa West 1.6 km/h 6.4 km/h 86 % 0.0 mm
21:32 13.8 °C 11.3 °C 1021.9 hPa Calm   4.8 km/h 85 % 0.0 mm
21:42 13.8 °C 11.3 °C 1021.9 hPa Calm   4.8 km/h 85 % 0.0 mm
21:47 13.8 °C 11.1 °C 1021.9 hPa Calm   4.8 km/h 84 % 0.0 mm
21:52 13.7 °C 11.0 °C 1021.9 hPa NNW 1.6 km/h 3.2 km/h 84 % 0.0 mm
21:57 13.7 °C 11.0 °C 1022.2 hPa NW 1.6 km/h 4.8 km/h 84 % 0.0 mm
22:02 13.7 °C 11.0 °C 1022.2 hPa NW 1.6 km/h 4.8 km/h 84 % 0.0 mm
22:12 13.7 °C 11.2 °C 1022.2 hPa NW 3.2 km/h 6.4 km/h 85 % 0.0 mm
22:17 13.6 °C 11.3 °C 1022.2 hPa NW 1.6 km/h 6.4 km/h 86 % 0.0 mm
22:22 13.4 °C 11.1 °C 1022.2 hPa WNW 4.8 km/h 6.4 km/h 86 % 0.0 mm
22:27 13.4 °C 10.9 °C 1022.2 hPa WNW 1.6 km/h 6.4 km/h 85 % 0.0 mm
22:32 13.4 °C 11.1 °C 1022.2 hPa NNW 3.2 km/h 6.4 km/h 86 % 0.0 mm
22:42 13.4 °C 10.9 °C 1022.2 hPa WNW 1.6 km/h 6.4 km/h 85 % 0.0 mm
22:47 13.4 °C 10.9 °C 1022.2 hPa NW 3.2 km/h 6.4 km/h 85 % 0.0 mm
22:52 13.4 °C 11.1 °C 1022.2 hPa NW 3.2 km/h 6.4 km/h 86 % 0.0 mm
22:57 13.3 °C 11.0 °C 1022.2 hPa Calm   6.4 km/h 86 % 0.0 mm
23:02 13.2 °C 10.9 °C 1022.2 hPa WNW 1.6 km/h 6.4 km/h 86 % 0.0 mm
23:12 13.1 °C 11.0 °C 1022.2 hPa Calm   4.8 km/h 87 % 0.0 mm
23:17 13.1 °C 11.0 °C 1022.2 hPa Calm   4.8 km/h 87 % 0.0 mm
23:22 13.1 °C 10.8 °C 1022.2 hPa NNW 1.6 km/h 4.8 km/h 86 % 0.0 mm
23:32 13.2 °C 10.9 °C 1022.2 hPa Calm   3.2 km/h 86 % 0.0 mm
23:37 13.2 °C 10.9 °C 1022.2 hPa Calm   3.2 km/h 86 % 0.0 mm
23:42 13.2 °C 10.7 °C 1022.2 hPa NNW 1.6 km/h 1.6 km/h 85 % 0.0 mm
23:47 13.2 °C 10.7 °C 1022.2 hPa NNW 1.6 km/h 1.6 km/h 85 % 0.0 mm
23:52 13.2 °C 10.7 °C 1022.2 hPa WNW 1.6 km/h 3.2 km/h 85 % 0.0 mm
23:57 13.1 °C 10.6 °C 1022.2 hPa West 1.6 km/h 3.2 km/h 85 % 0.0 mm
Meteo18
Compliments of Weather Underground - 4 mb

Script developed by  Jim McMurry - jmcmurry@mwt.net Adapted for the template by  Wim van der Kuil - Leuven-Template.eu

You find our weather info also at:

European Weather Network

Weather Underground

Equipment we use:

Weather-station
Davis Vue

Weather-program
Meteohub

Weather-server
Raspberry PI 2 B+

Provider
1 and 1

Davis Vue

Meteohub

Raspberry PI 2 B+

1 and 1